Time;durP1;ratioP1;P1;durP2;ratioP2;P2;SDS_P1;SDS_P2;PMS_P1;PMS_P2;Temp;Humidity;BMP_temperature;BMP_pressure;BME280_temperature;BME280_humidity;BME280_pressure;Samples;Min_cycle;Max_cycle;Signal;HPM_P1;HPM_P2
2021/06/28 02:47:56;;;;;;;5.70;5.20;;;19.00;99.90;;;;;;4731177;23;88190;-80
2021/06/28 02:50:22;;;;;;;5.28;4.88;;;18.90;99.90;;;;;;4918754;28;86861;-84
2021/06/28 02:56:16;;;;;;;5.07;4.70;;;18.90;99.90;;;;;;4912396;28;86831;-82
2021/06/28 02:58:46;;;;;;;6.22;5.68;;;18.80;99.90;;;;;;4899504;28;85997;-83
2021/06/28 03:01:13;;;;;;;5.50;5.10;;;18.70;99.90;;;;;;4905738;28;86827;-82
2021/06/28 03:03:39;;;;;;;4.90;4.50;;;18.70;99.90;;;;;;4917787;28;86611;-82
2021/06/28 03:06:05;;;;;;;5.93;5.43;;;18.60;99.90;;;;;;4915203;28;88127;-82
2021/06/28 03:08:32;;;;;;;6.43;5.88;;;18.60;99.90;;;;;;4916312;28;90133;-80
2021/06/28 03:11:01;;;;;;;5.45;4.90;;;18.60;99.90;;;;;;4908123;28;86601;-82
2021/06/28 03:13:27;;;;;;;5.43;5.05;;;18.50;99.90;;;;;;4914706;28;86999;-82
2021/06/28 03:15:52;;;;;;;5.90;5.35;;;18.50;99.90;;;;;;4913954;28;87218;-82
2021/06/28 03:18:18;;;;;;;6.20;5.05;;;18.40;99.90;;;;;;4915448;28;86890;-82
2021/06/28 03:20:44;;;;;;;5.72;5.32;;;18.40;99.90;;;;;;4911852;28;86989;-81
2021/06/28 03:23:09;;;;;;;6.05;5.50;;;18.50;99.90;;;;;;4913900;28;86084;-82
2021/06/28 03:25:35;;;;;;;5.88;5.47;;;18.20;99.90;;;;;;4911159;28;87173;-83
2021/06/28 03:28:01;;;;;;;6.80;5.50;;;18.30;99.90;;;;;;4913984;28;87091;-82
2021/06/28 03:30:27;;;;;;;6.35;5.75;;;18.30;99.90;;;;;;4912685;28;87713;-82
2021/06/28 03:32:53;;;;;;;5.90;5.38;;;18.20;99.90;;;;;;4913994;28;86594;-85
2021/06/28 03:35:18;;;;;;;5.53;5.03;;;18.20;99.90;;;;;;4916928;28;87789;-84
2021/06/28 03:37:44;;;;;;;6.00;5.53;;;18.40;99.90;;;;;;4913535;28;87030;-84
2021/06/28 03:40:12;;;;;;;5.85;5.45;;;18.20;99.90;;;;;;4911790;28;86937;-85
2021/06/28 03:42:38;;;;;;;6.22;5.72;;;18.30;99.90;;;;;;4895564;28;86671;-84
2021/06/28 03:45:06;;;;;;;5.90;5.40;;;18.30;99.90;;;;;;4914053;28;86825;-83
2021/06/28 03:47:32;;;;;;;5.75;5.32;;;18.20;99.90;;;;;;4900477;28;87810;-84
2021/06/28 03:49:58;;;;;;;6.20;5.30;;;18.30;99.90;;;;;;4896532;28;86756;-82
2021/06/28 03:52:24;;;;;;;6.20;5.70;;;18.30;99.90;;;;;;4888600;28;86842;-82
2021/06/28 03:54:49;;;;;;;5.18;4.78;;;18.40;99.90;;;;;;4883728;28;88642;-80
2021/06/28 03:57:15;;;;;;;6.00;5.40;;;18.30;99.90;;;;;;4892412;28;87280;-79
2021/06/28 03:59:41;;;;;;;5.90;5.50;;;18.40;99.90;;;;;;4890232;28;87258;-81
2021/06/28 04:02:07;;;;;;;5.50;5.10;;;18.50;99.90;;;;;;4887234;28;87542;-83
2021/06/28 04:04:32;;;;;;;5.65;5.18;;;18.40;99.90;;;;;;4884695;28;87274;-82
2021/06/28 04:06:58;;;;;;;5.90;5.50;;;18.50;99.90;;;;;;4890853;28;87054;-83
2021/06/28 04:09:24;;;;;;;5.63;5.22;;;18.50;99.90;;;;;;4890778;28;87046;-81
2021/06/28 04:11:50;;;;;;;5.57;5.18;;;18.50;99.90;;;;;;4881605;28;86314;-82
2021/06/28 04:14:16;;;;;;;5.65;5.18;;;18.40;99.90;;;;;;4894681;28;86656;-82
2021/06/28 04:16:42;;;;;;;5.65;5.25;;;18.50;99.90;;;;;;4890223;28;88048;-82
2021/06/28 04:19:07;;;;;;;6.70;5.30;;;18.50;99.90;;;;;;4873638;28;87785;-83
2021/06/28 04:21:34;;;;;;;6.40;5.80;;;18.40;99.90;;;;;;4877605;28;87057;-82
2021/06/28 04:24:03;;;;;;;5.78;5.25;;;18.50;99.90;;;;;;4882574;28;87172;-82
2021/06/28 04:26:29;;;;;;;6.75;6.15;;;18.50;99.90;;;;;;4873079;28;87654;-82
2021/06/28 04:28:55;;;;;;;6.13;5.50;;;18.60;99.90;;;;;;4882298;28;86175;-82
2021/06/28 04:31:21;;;;;;;6.40;5.90;;;;;;;;;;4892049;28;87049;-83
2021/06/28 04:33:47;;;;;;;6.38;5.78;;;18.80;99.90;;;;;;4894312;28;86854;-83
2021/06/28 04:36:12;;;;;;;8.60;6.63;;;18.80;99.90;;;;;;4895549;28;88319;-82
2021/06/28 04:38:38;;;;;;;7.28;6.68;;;18.90;99.90;;;;;;4895049;28;86955;-82
2021/06/28 04:41:04;;;;;;;5.03;4.63;;;19.00;99.90;;;;;;4894203;28;86974;-81
2021/06/28 04:43:30;;;;;;;6.65;6.05;;;19.10;99.90;;;;;;4893257;28;88148;-82
2021/06/28 04:45:55;;;;;;;6.70;6.00;;;19.20;99.90;;;;;;4877463;29;88737;-81
2021/06/28 04:48:21;;;;;;;6.22;5.78;;;19.20;99.90;;;;;;4878439;28;86727;-81
2021/06/28 04:50:47;;;;;;;6.30;5.75;;;19.40;99.90;;;;;;4877704;28;86908;-82
2021/06/28 04:53:14;;;;;;;6.85;6.10;;;19.40;99.90;;;;;;4881095;29;88045;-80
2021/06/28 04:55:39;;;;;;;6.70;6.10;;;19.40;99.90;;;;;;4885805;28;86835;-81
2021/06/28 04:58:05;;;;;;;6.93;6.05;;;19.50;99.90;;;;;;4899365;28;86696;-82
2021/06/28 05:00:31;;;;;;;6.10;5.60;;;19.50;99.90;;;;;;4899413;28;85977;-82
2021/06/28 05:02:56;;;;;;;7.38;6.10;;;19.60;99.90;;;;;;4890777;28;86745;-82
2021/06/28 05:05:22;;;;;;;5.97;5.55;;;19.50;99.90;;;;;;4881771;28;86842;-76
2021/06/28 05:07:48;;;;;;;5.80;5.40;;;19.90;99.90;;;;;;4887513;28;87273;-76
2021/06/28 05:10:15;;;;;;;7.18;6.57;;;19.80;99.90;;;;;;4887819;28;86983;-75
2021/06/28 05:12:41;;;;;;;5.90;4.75;;;19.80;99.90;;;;;;4887300;28;88044;-75
2021/06/28 05:15:08;;;;;;;4.90;4.20;;;19.90;99.90;;;;;;4888098;28;86803;-76
2021/06/28 05:17:34;;;;;;;4.93;4.50;;;19.90;99.90;;;;;;4884179;28;86850;-75
2021/06/28 05:20:00;;;;;;;5.25;4.32;;;20.00;99.90;;;;;;4886031;28;87003;-75
2021/06/28 05:22:26;;;;;;;4.90;4.20;;;20.10;99.90;;;;;;4865510;29;90366;-75
2021/06/28 05:24:52;;;;;;;6.68;4.43;;;20.20;99.90;;;;;;4882204;28;86215;-75
2021/06/28 05:27:17;;;;;;;5.68;4.38;;;20.20;99.90;;;;;;4882837;28;86856;-76
2021/06/28 05:29:43;;;;;;;5.60;4.55;;;20.30;99.90;;;;;;4885548;28;87208;-75
2021/06/28 05:32:09;;;;;;;5.40;4.32;;;20.40;99.90;;;;;;4883784;28;88137;-75
2021/06/28 05:34:34;;;;;;;4.68;4.28;;;20.50;99.90;;;;;;4884842;28;87305;-75
2021/06/28 05:37:00;;;;;;;6.38;4.90;;;20.50;99.90;;;;;;4887617;28;86692;-75
2021/06/28 05:39:26;;;;;;;6.32;4.38;;;20.60;99.90;;;;;;4875809;28;86860;-75
2021/06/28 05:41:52;;;;;;;9.07;5.50;;;20.70;99.90;;;;;;4880299;28;87742;-75
2021/06/28 05:44:17;;;;;;;6.60;5.00;;;20.90;99.90;;;;;;4887479;28;87159;-75
2021/06/28 05:46:43;;;;;;;5.20;4.72;;;20.90;99.90;;;;;;4891949;28;87052;-83
2021/06/28 05:49:09;;;;;;;4.93;4.40;;;21.00;99.90;;;;;;4893873;28;85990;-84
2021/06/28 05:51:34;;;;;;;5.30;4.80;;;21.10;99.90;;;;;;4894538;28;87177;-82
2021/06/28 05:54:00;;;;;;;8.80;5.03;;;21.10;99.90;;;;;;4895452;28;86748;-82
2021/06/28 05:56:26;;;;;;;5.38;4.60;;;21.30;99.90;;;;;;4878549;28;87841;-82
2021/06/28 05:58:52;;;;;;;5.40;4.65;;;21.40;99.90;;;;;;4894510;28;86449;-85
2021/06/28 06:01:18;;;;;;;7.00;6.35;;;;;;;;;;4891991;28;87214;-85
2021/06/28 06:03:43;;;;;;;5.13;4.60;;;21.60;99.90;;;;;;4894954;28;87339;-84
2021/06/28 06:06:09;;;;;;;6.88;6.38;;;21.00;99.90;;;;;;4894067;28;87012;-85
2021/06/28 06:08:35;;;;;;;6.38;5.78;;;21.50;99.90;;;;;;4894541;28;87085;-86
2021/06/28 06:11:03;;;;;;;10.00;5.03;;;21.90;99.90;;;;;;4879315;28;86980;-82
2021/06/28 06:13:28;;;;;;;4.57;4.18;;;22.00;99.90;;;;;;4867003;28;88845;-85
2021/06/28 06:15:55;;;;;;;6.00;5.50;;;22.30;99.90;;;;;;4894758;28;86977;-86
2021/06/28 06:18:22;;;;;;;5.93;5.43;;;22.20;99.90;;;;;;4887861;28;87054;-84
2021/06/28 06:20:48;;;;;;;6.10;5.55;;;22.20;99.90;;;;;;4893480;28;88160;-83
2021/06/28 06:23:14;;;;;;;6.10;5.63;;;;;;;;;;4882110;28;87100;-85
2021/06/28 06:25:41;;;;;;;6.38;5.78;;;22.50;99.90;;;;;;4891976;28;87120;-84
2021/06/28 06:28:07;;;;;;;6.40;5.80;;;22.80;99.90;;;;;;4897684;28;86291;-83
2021/06/28 06:30:33;;;;;;;6.05;5.60;;;22.60;99.90;;;;;;4897748;28;86881;-85
2021/06/28 06:32:59;;;;;;;6.13;5.60;;;22.70;99.90;;;;;;4882821;28;86657;-85
2021/06/28 06:35:25;;;;;;;5.18;4.00;;;22.80;99.90;;;;;;4891975;28;87013;-84
2021/06/28 06:37:53;;;;;;;5.72;5.32;;;22.90;99.90;;;;;;4890672;28;85986;-85
2021/06/28 06:40:20;;;;;;;6.53;5.90;;;22.80;99.90;;;;;;4877587;28;87464;-84
2021/06/28 06:42:46;;;;;;;5.72;5.30;;;23.10;99.90;;;;;;4879247;28;87041;-85
2021/06/28 06:45:14;;;;;;;5.63;5.18;;;23.20;99.90;;;;;;4879358;28;87523;-85
2021/06/28 06:47:41;;;;;;;6.13;5.72;;;23.30;99.90;;;;;;4891662;28;86775;-85
2021/06/28 06:50:10;;;;;;;6.15;5.75;;;23.30;99.90;;;;;;4883242;28;87700;-85
2021/06/28 06:52:35;;;;;;;5.95;5.55;;;23.30;99.90;;;;;;4888108;28;86982;-85
2021/06/28 06:55:03;;;;;;;6.80;5.97;;;23.40;99.90;;;;;;4892701;28;87002;-85
2021/06/28 06:57:28;;;;;;;5.85;5.30;;;23.50;99.90;;;;;;4890462;28;87052;-84
2021/06/28 06:59:54;;;;;;;5.72;5.22;;;23.50;99.90;;;;;;4878753;28;87975;-84
2021/06/28 07:02:20;;;;;;;4.57;4.18;;;23.60;99.90;;;;;;4891454;28;87465;-85
2021/06/28 07:04:45;;;;;;;6.43;5.90;;;23.60;99.90;;;;;;4890143;28;86664;-85
2021/06/28 07:07:11;;;;;;;7.50;6.03;;;23.40;99.60;;;;;;4906205;28;86656;-85
2021/06/28 07:09:38;;;;;;;7.05;5.43;;;23.70;97.70;;;;;;4893762;28;88347;-85
2021/06/28 07:12:04;;;;;;;5.38;4.97;;;23.60;97.50;;;;;;4894575;28;89014;-85
2021/06/28 07:14:30;;;;;;;6.00;5.50;;;23.60;97.60;;;;;;4892457;28;87064;-85
2021/06/28 07:16:56;;;;;;;5.85;5.40;;;23.70;97.80;;;;;;4895677;28;87090;-84
2021/06/28 07:19:21;;;;;;;6.03;5.43;;;23.70;97.20;;;;;;4900750;28;87472;-84
2021/06/28 07:21:48;;;;;;;5.80;5.30;;;23.70;96.70;;;;;;4892847;28;88908;-84
2021/06/28 07:24:15;;;;;;;6.22;5.72;;;23.80;97.60;;;;;;4893558;28;86802;-84
2021/06/28 07:26:41;;;;;;;6.10;5.60;;;23.70;97.30;;;;;;4893957;28;85965;-83
2021/06/28 07:29:07;;;;;;;5.97;5.57;;;23.80;97.70;;;;;;4877613;28;91112;-84
2021/06/28 07:31:34;;;;;;;6.65;6.18;;;23.80;96.40;;;;;;4879174;28;87935;-85
2021/06/28 07:34:00;;;;;;;6.25;5.72;;;23.90;96.20;;;;;;4893034;28;87940;-85
2021/06/28 07:36:26;;;;;;;5.88;5.38;;;24.00;97.20;;;;;;4907647;28;87377;-85
2021/06/28 07:38:52;;;;;;;6.32;5.38;;;24.10;97.20;;;;;;4908039;28;87295;-84
2021/06/28 07:41:18;;;;;;;6.18;5.68;;;24.10;94.30;;;;;;4907486;28;86833;-86
2021/06/28 07:43:43;;;;;;;6.28;5.78;;;24.30;96.20;;;;;;4907531;28;86335;-84
2021/06/28 07:46:09;;;;;;;5.68;5.28;;;24.30;95.10;;;;;;4906754;28;86220;-82
2021/06/28 07:48:35;;;;;;;5.78;5.47;;;24.40;95.30;;;;;;4922555;28;87086;-85
2021/06/28 07:51:01;;;;;;;5.80;5.40;;;24.50;95.60;;;;;;4912856;28;86336;-84
2021/06/28 07:53:27;;;;;;;4.80;4.38;;;24.60;94.10;;;;;;4914813;28;86825;-84
2021/06/28 07:55:53;;;;;;;5.85;5.30;;;24.70;93.30;;;;;;4912781;28;86873;-84
2021/06/28 07:58:18;;;;;;;5.60;5.20;;;24.70;93.70;;;;;;4913303;28;88596;-84
2021/06/28 08:00:44;;;;;;;5.82;5.35;;;24.80;93.30;;;;;;4914276;28;87148;-83
2021/06/28 08:03:10;;;;;;;6.40;5.90;;;24.90;93.10;;;;;;4915512;28;86611;-85
2021/06/28 08:05:37;;;;;;;5.47;4.97;;;25.00;92.70;;;;;;4913785;28;86579;-85
2021/06/28 08:08:04;;;;;;;5.55;5.15;;;25.20;92.90;;;;;;4914144;28;87491;-86
2021/06/28 08:10:29;;;;;;;5.90;5.38;;;25.40;92.30;;;;;;4915606;28;87081;-85
2021/06/28 08:12:55;;;;;;;6.53;6.03;;;25.40;91.70;;;;;;4915612;28;86794;-86
2021/06/28 08:15:21;;;;;;;6.45;5.82;;;25.60;92.00;;;;;;4916112;28;86220;-85
2021/06/28 08:17:48;;;;;;;6.53;5.53;;;25.60;92.50;;;;;;4915785;28;88069;-85
2021/06/28 08:20:16;;;;;;;6.40;5.82;;;25.90;92.30;;;;;;4912544;28;87859;-85
2021/06/28 08:22:43;;;;;;;6.28;5.78;;;26.00;91.20;;;;;;4914869;28;87861;-85
2021/06/28 08:25:10;;;;;;;6.25;5.75;;;26.00;91.00;;;;;;4916629;28;86583;-85
2021/06/28 08:27:36;;;;;;;5.97;5.55;;;26.10;90.50;;;;;;4914032;28;86644;-86
2021/06/28 08:30:04;;;;;;;6.00;5.60;;;26.30;90.20;;;;;;4912293;28;86968;-86
2021/06/28 08:32:30;;;;;;;6.43;6.00;;;26.40;89.30;;;;;;4914514;28;87074;-85
2021/06/28 08:34:56;;;;;;;6.40;5.90;;;26.50;89.80;;;;;;4914569;28;86959;-85
2021/06/28 08:37:22;;;;;;;5.88;5.40;;;26.70;89.10;;;;;;4915089;28;87358;-86
2021/06/28 08:39:48;;;;;;;5.70;5.30;;;26.90;90.00;;;;;;4914632;28;87135;-85
2021/06/28 08:42:16;;;;;;;5.57;5.20;;;27.00;89.30;;;;;;4916768;28;87008;-86
2021/06/28 08:44:44;;;;;;;5.85;5.30;;;27.20;87.80;;;;;;4914094;28;86475;-86
2021/06/28 08:47:10;;;;;;;5.68;5.28;;;27.30;85.60;;;;;;4914606;28;88104;-85
2021/06/28 08:49:37;;;;;;;6.25;5.65;;;27.50;85.90;;;;;;4914459;28;87866;-85
2021/06/28 08:52:04;;;;;;;5.47;5.07;;;27.80;85.90;;;;;;4913801;28;86459;-86
2021/06/28 08:54:30;;;;;;;5.38;5.00;;;28.00;83.10;;;;;;4914809;28;87285;-86
2021/06/28 08:56:57;;;;;;;5.30;4.80;;;28.20;80.70;;;;;;4912692;28;86906;-84
2021/06/28 08:59:23;;;;;;;5.53;5.03;;;28.40;81.70;;;;;;4915299;28;86996;-85
2021/06/28 09:01:49;;;;;;;5.40;5.00;;;28.80;80.60;;;;;;4919008;28;87074;-86
2021/06/28 09:04:15;;;;;;;5.40;4.95;;;28.90;76.90;;;;;;4914453;28;86266;-86
2021/06/28 09:06:42;;;;;;;5.63;5.28;;;29.00;75.30;;;;;;4926940;28;87660;-85
2021/06/28 09:09:18;;;;;;;4.85;4.55;;;29.30;76.20;;;;;;4916899;28;87001;-83
2021/06/28 09:11:52;;;;;;;5.15;4.80;;;29.70;72.30;;;;;;4915409;28;87822;-86
2021/06/28 09:14:21;;;;;;;5.40;5.10;;;30.30;71.80;;;;;;4914642;28;86494;-86
2021/06/28 09:16:47;;;;;;;4.90;4.38;;;31.00;72.00;;;;;;4902025;28;87292;-84
2021/06/28 09:19:18;;;;;;;4.90;4.50;;;31.40;69.20;;;;;;4914952;28;87332;-84
2021/06/28 09:21:52;;;;;;;5.53;5.20;;;31.60;64.70;;;;;;4913908;28;88039;-87
2021/06/28 09:24:37;;;;;;;5.47;5.18;;;31.90;65.80;;;;;;4915890;28;86756;-84
2021/06/28 09:27:12;;;;;;;7.10;5.68;;;32.60;60.00;;;;;;4911312;28;86998;-84
2021/06/28 09:29:41;;;;;;;6.28;5.72;;;33.60;61.60;;;;;;4909791;28;87189;-85
2021/06/28 09:32:11;;;;;;;5.63;5.13;;;34.40;56.80;;;;;;4911111;28;87011;-84
2021/06/28 09:34:38;;;;;;;5.57;5.10;;;34.80;52.90;;;;;;4914188;28;87118;-84
2021/06/28 09:37:04;;;;;;;5.65;5.25;;;35.80;54.00;;;;;;4914714;28;88245;-85
2021/06/28 09:39:38;;;;;;;5.40;5.00;;;36.60;51.40;;;;;;4913577;28;87081;-84
2021/06/28 09:42:07;;;;;;;6.22;5.60;;;37.50;48.30;;;;;;4914777;28;86836;-85
2021/06/28 09:44:36;;;;;;;5.50;5.20;;;38.20;47.60;;;;;;4914361;28;86741;-85
2021/06/28 09:47:15;;;;;;;5.90;5.40;;;39.00;44.00;;;;;;4909233;28;88258;-85
2021/06/28 09:49:58;;;;;;;5.60;5.30;;;39.40;42.60;;;;;;4891629;28;86974;-85
2021/06/28 09:52:51;;;;;;;5.95;5.47;;;40.20;43.20;;;;;;4896377;28;86862;-83
2021/06/28 09:55:18;;;;;;;6.40;5.80;;;40.70;41.00;;;;;;4894311;28;86199;-83
2021/06/28 09:58:25;;;;;;;5.97;5.68;;;41.30;40.50;;;;;;4894621;28;87666;-84
2021/06/28 10:01:02;;;;;;;6.72;6.13;;;41.60;38.80;;;;;;4896148;28;86886;-83
2021/06/28 10:03:28;;;;;;;5.93;5.40;;;42.20;37.20;;;;;;4894120;28;87861;-84
2021/06/28 10:08:44;;;;;;;6.55;6.15;;;43.20;35.80;;;;;;4890123;28;87302;-85
2021/06/28 10:11:24;;;;;;;6.78;6.32;;;43.90;37.30;;;;;;4895995;28;86656;-85
2021/06/28 10:14:02;;;;;;;6.72;6.32;;;44.80;37.20;;;;;;4896383;28;86833;-85
2021/06/28 10:16:33;;;;;;;7.13;6.53;;;45.90;36.10;;;;;;4894234;28;86209;-85
2021/06/28 10:19:01;;;;;;;6.68;6.18;;;46.60;35.40;;;;;;4893872;28;87419;-85
2021/06/28 10:21:27;;;;;;;7.07;6.50;;;47.60;34.70;;;;;;4894510;28;87019;-83
2021/06/28 10:23:54;;;;;;;7.82;7.18;;;48.10;33.30;;;;;;4894623;28;86850;-84
2021/06/28 10:26:21;;;;;;;7.28;6.68;;;48.90;32.70;;;;;;4896361;28;86729;-84
2021/06/28 10:28:47;;;;;;;7.50;6.93;;;49.40;32.10;;;;;;4893933;28;89370;-87
2021/06/28 10:31:13;;;;;;;7.30;6.70;;;49.30;31.80;;;;;;4891402;28;87221;-85
2021/06/28 10:33:43;;;;;;;7.55;7.10;;;49.70;32.40;;;;;;4895420;28;86812;-85
2021/06/28 10:36:18;;;;;;;7.70;7.30;;;49.60;30.60;;;;;;4896607;28;88062;-84
2021/06/28 10:38:56;;;;;;;7.32;6.93;;;50.10;31.20;;;;;;4895967;28;87130;-85
2021/06/28 10:41:36;;;;;;;7.80;7.15;;;51.00;30.00;;;;;;4894865;28;86885;-85
2021/06/28 10:44:04;;;;;;;7.90;7.40;;;51.60;29.70;;;;;;4895584;28;86179;-85
2021/06/28 10:46:38;;;;;;;8.10;7.70;;;51.80;29.50;;;;;;4894376;28;86230;-84
2021/06/28 10:49:05;;;;;;;8.70;8.10;;;52.10;29.50;;;;;;4911921;28;87391;-84
2021/06/28 10:51:50;;;;;;;7.88;7.32;;;52.00;30.00;;;;;;4914142;28;86683;-85
2021/06/28 10:54:30;;;;;;;7.15;6.72;;;52.00;29.70;;;;;;4913752;28;87623;-85
2021/06/28 10:56:57;;;;;;;8.07;7.68;;;51.90;30.00;;;;;;4908005;28;96058;-85
2021/06/28 10:59:26;;;;;;;7.65;7.20;;;51.80;29.90;;;;;;4920136;28;86837;-84
2021/06/28 11:01:55;;;;;;;8.43;7.80;;;52.30;29.70;;;;;;4915819;28;87152;-85
2021/06/28 11:04:27;;;;;;;8.02;7.63;;;52.60;29.00;;;;;;4910511;28;87076;-85
2021/06/28 11:06:53;;;;;;;8.38;7.97;;;52.70;28.40;;;;;;4913695;28;86699;-85
2021/06/28 11:09:47;;;;;;;8.32;7.93;;;52.60;29.30;;;;;;4912689;28;88571;-85
2021/06/28 11:12:21;;;;;;;8.30;7.88;;;52.10;29.40;;;;;;4914885;28;86973;-85
2021/06/28 11:15:25;;;;;;;8.57;8.00;;;51.60;29.20;;;;;;4913855;28;86786;-84
2021/06/28 11:21:32;;;;;;;8.38;7.88;;;51.00;30.60;;;;;;4911594;28;87776;-85
2021/06/28 11:24:00;;;;;;;8.07;7.68;;;50.60;30.80;;;;;;4917958;28;87972;-85
2021/06/28 11:26:36;;;;;;;8.73;8.13;;;50.10;30.70;;;;;;4914048;28;86739;-84
2021/06/28 11:29:02;;;;;;;8.40;7.90;;;50.50;30.30;;;;;;4916086;28;86692;-84
2021/06/28 11:31:37;;;;;;;8.55;8.05;;;50.60;31.10;;;;;;4915780;28;87191;-84
2021/06/28 11:34:03;;;;;;;7.93;7.53;;;50.60;30.10;;;;;;4917824;28;86631;-85
2021/06/28 11:36:35;;;;;;;8.50;8.00;;;50.40;30.10;;;;;;4914689;28;86833;-84
2021/06/28 11:39:25;;;;;;;8.10;7.60;;;50.50;30.30;;;;;;4915098;28;86052;-83
2021/06/28 11:42:20;;;;;;;8.23;7.70;;;50.20;29.70;;;;;;4903683;28;87789;-84
2021/06/28 11:44:50;;;;;;;8.15;7.57;;;50.30;30.10;;;;;;4915073;28;87264;-84
2021/06/28 11:47:16;;;;;;;9.68;7.97;;;49.30;31.00;;;;;;4894753;28;87910;-84
2021/06/28 11:49:42;;;;;;;8.02;7.53;;;49.60;32.20;;;;;;4899223;28;86698;-85
2021/06/28 11:52:15;;;;;;;8.00;7.60;;;49.60;31.80;;;;;;4915883;28;87566;-85
2021/06/28 11:54:41;;;;;;;9.50;8.07;;;49.80;32.50;;;;;;4915364;28;86765;-84
2021/06/28 11:57:07;;;;;;;8.88;8.15;;;49.40;31.80;;;;;;4917125;28;86670;-84
2021/06/28 11:59:40;;;;;;;8.20;7.80;;;49.20;31.50;;;;;;4899109;28;86583;-85
2021/06/28 12:02:06;;;;;;;8.05;7.55;;;49.50;31.20;;;;;;4915902;28;86632;-85
2021/06/28 12:04:35;;;;;;;8.10;7.70;;;49.90;30.50;;;;;;4914570;28;87389;-85
2021/06/28 12:07:03;;;;;;;7.97;7.40;;;49.30;30.90;;;;;;4915016;28;86939;-85
2021/06/28 12:09:37;;;;;;;7.57;7.07;;;48.40;31.60;;;;;;4915684;28;87071;-84
2021/06/28 12:12:09;;;;;;;7.68;7.28;;;47.30;32.00;;;;;;4912527;28;87603;-84
2021/06/28 12:14:40;;;;;;;7.53;7.13;;;46.40;32.30;;;;;;4909010;28;88314;-84
2021/06/28 12:17:18;;;;;;;7.47;7.07;;;46.00;33.00;;;;;;4909809;28;86001;-84
2021/06/28 12:23:10;;;;;;;7.45;7.05;;;46.40;32.30;;;;;;4911659;28;87220;-84
2021/06/28 12:25:36;;;;;;;7.45;6.97;;;46.10;32.50;;;;;;4912776;28;88089;-84
2021/06/28 12:28:01;;;;;;;6.95;6.65;;;46.10;32.50;;;;;;4914536;28;86784;-84
2021/06/28 12:30:27;;;;;;;7.07;6.68;;;45.00;32.20;;;;;;4914793;28;86279;-84
2021/06/28 12:32:59;;;;;;;6.93;6.50;;;44.80;33.10;;;;;;4914358;28;87611;-84
2021/06/28 12:35:27;;;;;;;7.25;6.85;;;45.10;32.70;;;;;;4912683;28;87506;-84
2021/06/28 12:41:34;;;;;;;7.30;6.75;;;45.70;31.50;;;;;;4910595;28;86820;-84
2021/06/28 12:44:00;;;;;;;6.40;5.90;;;45.90;31.10;;;;;;4914265;28;87374;-84
2021/06/28 12:46:25;;;;;;;6.10;5.57;;;45.50;32.30;;;;;;4912376;28;86941;-83
2021/06/28 12:48:51;;;;;;;5.82;5.53;;;45.10;32.40;;;;;;4921461;28;86854;-84
2021/06/28 12:51:20;;;;;;;5.88;5.57;;;44.90;33.40;;;;;;4908185;28;86958;-84
2021/06/28 12:53:47;;;;;;;;;;;45.00;33.50;;;;;;4911796;28;87279;-84
2021/06/28 12:56:17;;;;;;;6.00;5.70;;;44.60;33.40;;;;;;4914270;28;86223;-84
2021/06/28 12:59:03;;;;;;;6.05;5.75;;;44.50;33.90;;;;;;4915095;28;88147;-84
2021/06/28 13:01:29;;;;;;;6.13;5.75;;;44.70;33.20;;;;;;4911789;28;86948;-85
2021/06/28 13:04:20;;;;;;;6.15;5.85;;;45.10;32.90;;;;;;4905147;28;88953;-84
2021/06/28 13:06:46;;;;;;;6.05;5.75;;;45.40;33.10;;;;;;4910305;28;88894;-85
2021/06/28 13:09:16;;;;;;;5.78;5.47;;;45.00;33.10;;;;;;4901429;28;87149;-85
2021/06/28 13:11:49;;;;;;;5.82;5.53;;;44.20;33.30;;;;;;4915710;28;86606;-85
2021/06/28 13:14:28;;;;;;;6.00;5.70;;;43.10;33.90;;;;;;4914163;28;87277;-85
2021/06/28 13:17:05;;;;;;;6.00;5.70;;;41.20;36.20;;;;;;4917502;28;86398;-84
2021/06/28 13:22:53;;;;;;;5.53;5.15;;;39.10;39.00;;;;;;4913967;28;85879;-83
2021/06/28 13:25:21;;;;;;;5.57;5.28;;;38.20;40.90;;;;;;4905338;28;87518;-84
2021/06/28 13:31:08;;;;;;;5.35;5.00;;;39.20;40.30;;;;;;4905525;28;87837;-83
2021/06/28 13:33:34;;;;;;;5.18;4.88;;;39.30;39.60;;;;;;4898321;28;86923;-83
2021/06/28 13:36:13;;;;;;;5.28;4.88;;;39.20;39.00;;;;;;4897358;28;86867;-83
2021/06/28 13:38:51;;;;;;;5.32;4.93;;;38.20;39.80;;;;;;4900713;28;87575;-85
2021/06/28 13:41:17;;;;;;;5.18;4.88;;;37.70;40.60;;;;;;4896301;28;86664;-83
2021/06/28 13:43:43;;;;;;;5.25;4.95;;;37.50;41.40;;;;;;4903066;28;86765;-84
2021/06/28 13:46:23;;;;;;;5.43;5.03;;;37.50;40.90;;;;;;4911771;28;88373;-84
2021/06/28 13:48:49;;;;;;;5.03;4.80;;;37.80;40.90;;;;;;4878177;29;86876;-84
2021/06/28 13:51:15;;;;;;;5.10;4.90;;;37.90;39.90;;;;;;4869346;29;86741;-83
2021/06/28 13:53:42;;;;;;;5.10;4.78;;;37.60;40.40;;;;;;4889772;28;86785;-84
2021/06/28 13:56:08;;;;;;;5.30;5.00;;;37.40;40.40;;;;;;4889111;28;89397;-83
2021/06/28 13:58:37;;;;;;;4.85;4.63;;;37.00;40.70;;;;;;4893691;28;87981;-84
2021/06/28 14:01:03;;;;;;;5.30;4.95;;;36.60;41.10;;;;;;4893759;28;86937;-84
2021/06/28 14:03:29;;;;;;;5.20;4.90;;;36.10;41.70;;;;;;4892923;28;86703;-83
2021/06/28 14:05:55;;;;;;;5.20;4.80;;;36.00;42.30;;;;;;4894088;28;87959;-82
2021/06/28 14:08:22;;;;;;;5.45;4.75;;;35.70;42.60;;;;;;4893142;28;86481;-84
2021/06/28 14:14:09;;;;;;;5.40;4.90;;;35.50;41.90;;;;;;4887758;28;85993;-84
2021/06/28 14:16:35;;;;;;;5.63;5.20;;;35.40;42.30;;;;;;4892021;28;86799;-83
2021/06/28 14:19:43;;;;;;;5.10;4.70;;;35.80;43.10;;;;;;4891630;28;87278;-84
2021/06/28 14:22:09;;;;;;;6.13;4.80;;;36.30;42.60;;;;;;4893613;28;87264;-84
2021/06/28 14:24:35;;;;;;;5.63;5.22;;;36.00;43.20;;;;;;4894804;28;86276;-84
2021/06/28 14:27:01;;;;;;;5.57;5.18;;;36.20;43.30;;;;;;4894654;28;87211;-84
2021/06/28 14:29:32;;;;;;;5.10;4.85;;;36.20;42.70;;;;;;4893847;28;87292;-85
2021/06/28 14:31:57;;;;;;;5.38;5.07;;;36.30;42.90;;;;;;4888497;28;86934;-83
2021/06/28 14:34:23;;;;;;;5.57;5.18;;;36.40;42.80;;;;;;4889144;28;87040;-84
2021/06/28 14:36:49;;;;;;;5.28;4.90;;;36.30;42.40;;;;;;4889594;28;88069;-84
2021/06/28 14:39:14;;;;;;;5.30;5.00;;;36.10;43.00;;;;;;4893466;28;87415;-84
2021/06/28 14:41:40;;;;;;;5.30;5.00;;;35.80;43.60;;;;;;4887422;28;86971;-85
2021/06/28 14:44:06;;;;;;;5.00;4.70;;;35.70;44.70;;;;;;4892030;28;87160;-85
2021/06/28 14:46:32;;;;;;;6.88;6.25;;;35.40;45.20;;;;;;4885973;28;88031;-85
2021/06/28 14:48:57;;;;;;;5.57;5.20;;;35.50;44.90;;;;;;4907895;28;87785;-84
2021/06/28 14:51:23;;;;;;;5.60;5.10;;;35.30;44.40;;;;;;4905620;28;87027;-85
2021/06/28 14:53:49;;;;;;;5.40;4.97;;;35.40;43.30;;;;;;4906964;28;87019;-85
2021/06/28 14:56:15;;;;;;;5.10;4.70;;;35.50;44.30;;;;;;4908178;28;87173;-84
2021/06/28 14:58:40;;;;;;;5.30;5.00;;;35.60;45.10;;;;;;4910118;28;87087;-84
2021/06/28 15:01:06;;;;;;;5.50;5.18;;;35.70;44.40;;;;;;4909087;28;87024;-85
2021/06/28 15:03:32;;;;;;;5.25;4.95;;;35.60;44.60;;;;;;4905778;28;86061;-84
2021/06/28 15:05:57;;;;;;;5.90;5.45;;;35.30;44.10;;;;;;4905934;28;86888;-85
2021/06/28 15:08:23;;;;;;;5.75;5.30;;;34.90;45.10;;;;;;4909678;28;86919;-85
2021/06/28 15:10:49;;;;;;;5.60;5.10;;;34.60;45.50;;;;;;4906939;28;88019;-85
2021/06/28 15:13:15;;;;;;;5.28;4.97;;;34.40;45.30;;;;;;4908535;28;86731;-85
2021/06/28 15:15:40;;;;;;;4.95;4.65;;;34.10;45.30;;;;;;4900765;28;88736;-85
2021/06/28 15:18:06;;;;;;;5.30;5.00;;;33.80;46.30;;;;;;4904115;28;86687;-85
2021/06/28 15:20:32;;;;;;;5.35;4.85;;;33.80;47.40;;;;;;4911792;28;86977;-84
2021/06/28 15:22:58;;;;;;;5.05;4.70;;;33.80;47.60;;;;;;4903435;28;87008;-85
2021/06/28 15:25:24;;;;;;;4.75;4.55;;;33.70;47.20;;;;;;4910940;28;87612;-85
2021/06/28 15:27:51;;;;;;;5.47;5.15;;;33.70;47.60;;;;;;4903258;28;87491;-85
2021/06/28 15:30:25;;;;;;;5.38;4.97;;;33.60;47.90;;;;;;4903153;28;87029;-84
2021/06/28 15:32:52;;;;;;;5.50;5.20;;;33.40;47.90;;;;;;4904895;28;86900;-84
2021/06/28 15:35:19;;;;;;;5.55;5.15;;;33.30;47.90;;;;;;4906649;28;88042;-85
2021/06/28 15:37:45;;;;;;;5.20;4.72;;;33.20;48.00;;;;;;4905310;28;88378;-84
2021/06/28 15:40:14;;;;;;;5.43;4.93;;;33.20;48.20;;;;;;4906195;28;87330;-85
2021/06/28 15:42:40;;;;;;;5.40;5.10;;;33.00;49.20;;;;;;4905800;28;86859;-84
2021/06/28 15:45:08;;;;;;;5.05;4.75;;;32.90;48.30;;;;;;4900097;28;87018;-84
2021/06/28 15:47:33;;;;;;;8.30;5.18;;;32.80;49.00;;;;;;4886717;28;87638;-86
2021/06/28 15:49:59;;;;;;;5.10;4.70;;;32.80;49.00;;;;;;4879557;28;87283;-83
2021/06/28 15:52:27;;;;;;;5.30;4.80;;;32.90;49.90;;;;;;4887411;28;86371;-84
2021/06/28 15:54:52;;;;;;;5.78;5.20;;;33.00;49.80;;;;;;4884177;28;88162;-84
2021/06/28 15:57:18;;;;;;;4.80;4.50;;;33.20;49.00;;;;;;4884798;28;87006;-84
2021/06/28 15:59:44;;;;;;;4.93;4.63;;;33.40;48.50;;;;;;4877549;28;88208;-85
2021/06/28 16:02:10;;;;;;;5.03;4.63;;;33.70;47.70;;;;;;4885110;28;87111;-84
2021/06/28 16:04:35;;;;;;;5.20;4.80;;;33.70;48.20;;;;;;4890232;28;87429;-84
2021/06/28 16:07:20;;;;;;;5.47;5.10;;;33.80;47.50;;;;;;4894231;28;86495;-84